Time;durP1;ratioP1;P1;durP2;ratioP2;P2;SDS_P1;SDS_P2;PMS_P1;PMS_P2;Temp;Humidity;BMP_temperature;BMP_pressure;BME280_temperature;BME280_humidity;BME280_pressure;Samples;Min_cycle;Max_cycle;Signal;HPM_P1;HPM_P2
2021/05/04 00:00:09;;;;;;;7.40;5.47;;;7.30;77.50;;;;;;2090157;28;20036;-73
2021/05/04 00:01:11;;;;;;;6.75;5.30;;;7.30;77.50;;;;;;2090041;28;20043;-73
2021/05/04 00:02:13;;;;;;;8.00;5.18;;;7.30;77.20;;;;;;2089901;28;20470;-73
2021/05/04 00:03:13;;;;;;;6.80;5.00;;;7.30;77.30;;;;;;2089933;28;20388;-73
2021/05/04 00:04:14;;;;;;;7.07;5.38;;;7.30;77.50;;;;;;2089348;28;20021;-73
2021/05/04 00:05:14;;;;;;;7.75;5.40;;;7.30;77.60;;;;;;2084532;28;20078;-74
2021/05/04 00:06:15;;;;;;;6.35;5.15;;;7.30;77.60;;;;;;2094128;28;20021;-74
2021/05/04 00:07:16;;;;;;;8.25;5.55;;;7.30;77.50;;;;;;2090006;28;20679;-73
2021/05/04 00:08:16;;;;;;;7.50;5.50;;;7.30;77.40;;;;;;2089916;28;20116;-74
2021/05/04 00:09:17;;;;;;;8.07;5.70;;;7.40;77.00;;;;;;2089314;28;20027;-74
2021/05/04 00:10:19;;;;;;;7.93;5.40;;;7.40;77.00;;;;;;2089304;28;20500;-74
2021/05/04 00:11:19;;;;;;;6.68;5.38;;;7.40;76.90;;;;;;2081030;28;20052;-74
2021/05/04 00:12:20;;;;;;;7.25;5.35;;;7.40;76.80;;;;;;2072915;28;20109;-73
2021/05/04 00:13:21;;;;;;;6.18;5.13;;;7.40;76.50;;;;;;2088796;28;20056;-74
2021/05/04 00:14:22;;;;;;;7.03;5.53;;;7.40;76.30;;;;;;2089947;28;20508;-74
2021/05/04 00:15:22;;;;;;;7.75;5.40;;;7.40;76.40;;;;;;2089339;28;20040;-73
2021/05/04 00:16:23;;;;;;;6.18;5.22;;;7.40;76.30;;;;;;2094048;28;20062;-74
2021/05/04 00:17:23;;;;;;;6.97;5.55;;;7.40;76.40;;;;;;2093420;28;20071;-74
2021/05/04 00:18:24;;;;;;;6.00;5.20;;;7.40;76.50;;;;;;2089908;28;20084;-73
2021/05/04 00:19:25;;;;;;;6.00;4.93;;;7.40;76.50;;;;;;2089241;28;20032;-73
2021/05/04 00:20:25;;;;;;;6.32;5.15;;;7.40;76.40;;;;;;2089239;28;20119;-74
2021/05/04 00:21:26;;;;;;;7.03;5.40;;;7.40;76.30;;;;;;2089278;28;20029;-73
2021/05/04 00:22:27;;;;;;;5.93;5.32;;;7.40;76.20;;;;;;2081090;28;20033;-74
2021/05/04 00:23:27;;;;;;;6.30;5.40;;;7.40;75.90;;;;;;2089163;28;20830;-74
2021/05/04 00:24:28;;;;;;;5.97;5.10;;;7.40;76.40;;;;;;2089394;28;20029;-73
2021/05/04 00:25:28;;;;;;;6.80;5.30;;;7.40;75.10;;;;;;2089183;28;20025;-74
2021/05/04 00:26:29;;;;;;;6.60;5.20;;;7.40;74.80;;;;;;2089154;28;20021;-73
2021/05/04 00:27:30;;;;;;;6.07;5.15;;;7.40;74.60;;;;;;2089453;28;20117;-74
2021/05/04 00:28:30;;;;;;;6.75;5.40;;;7.40;74.80;;;;;;2087143;28;20408;-74
2021/05/04 00:29:31;;;;;;;6.47;5.70;;;7.40;75.20;;;;;;2089951;28;20025;-74
2021/05/04 00:30:32;;;;;;;7.70;5.35;;;7.40;74.30;;;;;;2089887;28;20083;-74
2021/05/04 00:31:32;;;;;;;8.13;5.63;;;7.40;74.10;;;;;;2090037;28;20025;-74
2021/05/04 00:32:33;;;;;;;6.55;5.57;;;7.40;73.90;;;;;;2089933;28;20511;-74
2021/05/04 00:33:33;;;;;;;5.70;5.10;;;7.40;74.20;;;;;;2089477;28;20108;-74
2021/05/04 00:34:34;;;;;;;6.47;4.90;;;7.40;74.20;;;;;;2089884;28;20029;-73
2021/05/04 00:35:35;;;;;;;6.85;4.97;;;7.40;74.20;;;;;;2089351;28;20028;-74
2021/05/04 00:36:35;;;;;;;6.07;4.97;;;7.30;73.90;;;;;;2089468;28;20009;-74
2021/05/04 00:37:36;;;;;;;5.82;5.00;;;7.40;74.00;;;;;;2096239;28;20559;-74
2021/05/04 00:38:37;;;;;;;6.35;4.75;;;7.40;74.00;;;;;;2091751;28;20021;-74
2021/05/04 00:39:38;;;;;;;6.50;5.22;;;7.40;74.00;;;;;;2089919;28;20025;-75
2021/05/04 00:40:38;;;;;;;6.07;5.25;;;7.30;73.80;;;;;;2089877;28;20404;-74
2021/05/04 00:41:39;;;;;;;6.20;5.13;;;7.30;73.80;;;;;;2089779;28;20574;-74
2021/05/04 00:42:40;;;;;;;6.07;5.05;;;7.30;73.70;;;;;;2089985;28;20021;-75
2021/05/04 00:43:40;;;;;;;5.70;4.97;;;7.30;74.10;;;;;;2088859;28;20128;-75
2021/05/04 00:44:41;;;;;;;5.70;4.82;;;7.30;74.10;;;;;;2089173;28;20045;-75
2021/05/04 00:45:42;;;;;;;6.15;5.13;;;7.30;74.10;;;;;;2089303;28;20033;-75
2021/05/04 00:46:42;;;;;;;5.90;4.95;;;7.30;74.00;;;;;;2080924;28;20041;-74
2021/05/04 00:47:43;;;;;;;5.85;4.70;;;7.30;74.40;;;;;;2089087;28;20125;-74
2021/05/04 00:48:44;;;;;;;6.75;5.30;;;7.30;74.30;;;;;;2089968;28;20049;-74
2021/05/04 00:49:44;;;;;;;7.82;5.85;;;7.30;74.10;;;;;;2089811;28;20031;-73
2021/05/04 00:50:45;;;;;;;6.65;5.40;;;7.30;73.70;;;;;;2089837;28;20055;-75
2021/05/04 00:51:47;;;;;;;5.93;5.13;;;7.30;73.60;;;;;;2080989;28;20037;-75
2021/05/04 00:52:47;;;;;;;6.50;5.07;;;7.30;73.60;;;;;;2081328;28;20022;-75
2021/05/04 00:53:48;;;;;;;8.10;5.90;;;7.30;73.80;;;;;;2088994;28;20025;-75
2021/05/04 00:54:49;;;;;;;7.88;6.18;;;7.30;73.30;;;;;;2089221;28;20029;-74
2021/05/04 00:55:51;;;;;;;8.93;6.57;;;7.30;73.00;;;;;;2089550;28;20027;-72
2021/05/04 00:56:53;;;;;;;7.15;5.72;;;7.30;72.60;;;;;;2089494;28;20025;-75
2021/05/04 00:57:55;;;;;;;7.50;5.82;;;7.30;72.60;;;;;;2086715;28;20025;-75
2021/05/04 00:58:57;;;;;;;6.72;5.57;;;7.30;72.60;;;;;;2081323;28;20025;-75
2021/05/04 01:00:00;;;;;;;6.97;5.60;;;7.30;72.70;;;;;;2081107;28;20033;-75
2021/05/04 01:01:01;;;;;;;7.20;5.82;;;7.30;72.40;;;;;;2089885;28;20374;-74
2021/05/04 01:02:03;;;;;;;7.68;5.70;;;7.30;72.20;;;;;;2089935;28;20052;-75
2021/05/04 01:03:05;;;;;;;7.60;5.70;;;7.30;72.10;;;;;;2089701;28;20028;-75
2021/05/04 01:04:06;;;;;;;7.32;5.63;;;7.30;72.30;;;;;;2090548;28;20033;-75
2021/05/04 01:05:08;;;;;;;6.32;5.40;;;7.30;72.50;;;;;;2089884;28;20086;-74
2021/05/04 01:06:09;;;;;;;7.18;5.70;;;7.30;72.80;;;;;;2088898;28;20037;-74
2021/05/04 01:07:10;;;;;;;8.75;5.97;;;7.30;72.60;;;;;;2089105;28;20027;-72
2021/05/04 01:08:10;;;;;;;9.02;5.80;;;7.30;72.60;;;;;;2088917;28;20031;-74
2021/05/04 01:09:18;;;;;;;7.57;6.07;;;7.30;72.40;;;;;;2089426;28;20028;-74
2021/05/04 01:10:18;;;;;;;7.45;5.80;;;7.30;72.20;;;;;;2090156;28;20101;-74
2021/05/04 01:11:19;;;;;;;6.80;5.78;;;7.30;72.40;;;;;;2090511;28;20044;-73
2021/05/04 01:12:21;;;;;;;7.93;5.25;;;7.30;72.40;;;;;;2090182;28;20079;-75
2021/05/04 01:13:21;;;;;;;8.13;5.75;;;7.30;72.60;;;;;;2089407;28;20032;-74
2021/05/04 01:14:23;;;;;;;7.50;5.55;;;7.30;72.80;;;;;;2089051;28;20555;-74
2021/05/04 01:15:24;;;;;;;6.65;5.63;;;7.30;72.80;;;;;;2089547;28;20468;-74
2021/05/04 01:16:24;;;;;;;6.70;5.55;;;7.30;72.80;;;;;;2089554;28;20025;-74
2021/05/04 01:17:25;;;;;;;7.22;5.80;;;7.30;73.30;;;;;;2089534;28;20067;-74
2021/05/04 01:18:26;;;;;;;8.13;5.57;;;7.30;73.40;;;;;;2089577;28;20494;-74
2021/05/04 01:19:27;;;;;;;7.07;5.60;;;7.20;73.50;;;;;;2089494;28;20146;-74
2021/05/04 01:20:28;;;;;;;5.82;5.05;;;7.20;73.70;;;;;;2089639;28;20052;-74
2021/05/04 01:21:28;;;;;;;7.22;5.53;;;7.20;74.20;;;;;;2088776;28;20017;-73
2021/05/04 01:22:29;;;;;;;5.75;4.65;;;7.20;74.20;;;;;;2089371;28;20050;-74
2021/05/04 01:23:30;;;;;;;6.15;5.45;;;7.20;73.90;;;;;;2089124;28;20480;-74
2021/05/04 01:24:30;;;;;;;5.97;5.38;;;7.20;73.70;;;;;;2089378;28;20112;-74
2021/05/04 01:25:31;;;;;;;8.05;5.53;;;7.20;73.60;;;;;;2088823;28;20040;-74
2021/05/04 01:26:32;;;;;;;6.57;5.20;;;7.20;73.60;;;;;;2088882;28;20041;-73
2021/05/04 01:27:33;;;;;;;7.70;5.65;;;7.20;73.40;;;;;;2088121;28;20041;-74
2021/05/04 01:28:34;;;;;;;8.25;5.68;;;7.20;73.30;;;;;;2086910;28;20028;-75
2021/05/04 01:29:34;;;;;;;8.15;5.55;;;7.20;74.00;;;;;;2089268;28;20121;-74
2021/05/04 01:30:35;;;;;;;6.32;5.50;;;7.20;73.30;;;;;;2088647;28;20396;-75
2021/05/04 01:31:36;;;;;;;6.93;5.60;;;7.20;73.50;;;;;;2088675;28;20116;-74
2021/05/04 01:32:37;;;;;;;7.65;5.70;;;7.20;73.80;;;;;;2080564;28;20589;-74
2021/05/04 01:33:37;;;;;;;6.90;5.45;;;7.20;74.10;;;;;;2088271;28;20029;-74
2021/05/04 01:34:38;;;;;;;6.32;5.30;;;7.20;73.60;;;;;;2089346;28;20075;-75
2021/05/04 01:35:39;;;;;;;6.90;5.60;;;7.20;73.60;;;;;;2088656;28;20074;-74
2021/05/04 01:36:39;;;;;;;6.70;5.63;;;7.10;73.50;;;;;;2088842;28;20067;-75
2021/05/04 01:37:40;;;;;;;8.15;5.82;;;7.10;73.50;;;;;;2088577;28;20409;-75
2021/05/04 01:38:41;;;;;;;7.55;5.90;;;7.20;73.50;;;;;;2089331;28;20025;-74
2021/05/04 01:39:44;;;;;;;6.82;5.82;;;7.20;73.40;;;;;;2089394;28;20021;-74
2021/05/04 01:40:45;;;;;;;8.65;5.90;;;7.20;73.30;;;;;;2089274;28;20017;-75
2021/05/04 01:41:46;;;;;;;6.97;5.88;;;7.10;73.00;;;;;;2089438;28;20047;-74
2021/05/04 01:42:47;;;;;;;6.47;5.50;;;7.10;73.00;;;;;;2089314;28;20075;-74
2021/05/04 01:43:47;;;;;;;7.15;5.88;;;7.10;73.20;;;;;;2088861;28;20021;-74
2021/05/04 01:44:49;;;;;;;7.40;6.13;;;7.10;73.50;;;;;;2088558;28;20396;-74
2021/05/04 01:45:50;;;;;;;7.03;6.13;;;7.10;73.40;;;;;;2088575;28;20037;-74
2021/05/04 01:46:50;;;;;;;7.05;6.30;;;7.10;73.30;;;;;;2088513;28;20032;-74
2021/05/04 01:47:51;;;;;;;8.35;6.55;;;7.10;73.10;;;;;;2088564;28;20062;-74
2021/05/04 01:48:52;;;;;;;8.20;6.38;;;7.10;73.10;;;;;;2089233;28;20052;-75
2021/05/04 01:49:53;;;;;;;10.38;7.40;;;7.10;73.10;;;;;;2088510;28;20693;-75
2021/05/04 01:50:53;;;;;;;12.48;7.63;;;7.10;72.90;;;;;;2088545;28;20052;-75
2021/05/04 01:51:55;;;;;;;8.68;6.95;;;7.20;72.60;;;;;;2088584;28;20420;-75
2021/05/04 01:52:56;;;;;;;9.55;7.32;;;7.10;72.20;;;;;;2088172;28;20047;-75
2021/05/04 01:53:58;;;;;;;8.80;6.78;;;7.10;72.40;;;;;;2089242;28;20102;-74
2021/05/04 01:54:59;;;;;;;10.32;6.80;;;7.10;72.70;;;;;;2089203;28;20478;-74
2021/05/04 01:56:00;;;;;;;10.73;7.00;;;7.20;72.50;;;;;;2088551;28;20028;-74
2021/05/04 01:57:01;;;;;;;9.00;6.55;;;7.20;72.60;;;;;;2080319;28;20037;-75
2021/05/04 01:58:01;;;;;;;9.82;6.80;;;7.20;72.40;;;;;;2086092;28;20546;-74
2021/05/04 01:59:04;;;;;;;8.57;7.05;;;7.20;72.30;;;;;;2088635;28;20028;-75
2021/05/04 02:00:06;;;;;;;8.90;6.95;;;7.20;73.00;;;;;;2082565;28;20033;-75
2021/05/04 02:01:08;;;;;;;9.40;7.28;;;7.20;72.20;;;;;;2094086;28;20626;-74
2021/05/04 02:02:09;;;;;;;9.20;6.80;;;7.10;72.30;;;;;;2088539;28;20029;-75
2021/05/04 02:03:09;;;;;;;8.70;6.18;;;7.20;72.30;;;;;;2088697;28;20090;-73
2021/05/04 02:04:10;;;;;;;8.38;6.30;;;7.20;72.50;;;;;;2089063;28;20109;-74
2021/05/04 02:05:12;;;;;;;8.68;6.78;;;7.10;72.40;;;;;;2089013;28;20021;-74
2021/05/04 02:06:12;;;;;;;9.65;6.80;;;7.20;72.50;;;;;;2088967;28;20031;-74
2021/05/04 02:07:13;;;;;;;8.60;6.70;;;7.20;72.30;;;;;;2088956;28;20029;-74
2021/05/04 02:08:14;;;;;;;9.80;7.18;;;7.20;72.70;;;;;;2088863;28;20025;-73
2021/05/04 02:09:14;;;;;;;9.20;7.20;;;7.10;72.70;;;;;;2088284;28;20090;-74
2021/05/04 02:10:15;;;;;;;9.10;6.70;;;7.10;72.40;;;;;;2083564;28;20053;-75
2021/05/04 02:11:16;;;;;;;9.35;6.60;;;7.10;72.20;;;;;;2093065;28;20025;-75
2021/05/04 02:12:16;;;;;;;7.53;6.32;;;7.20;72.10;;;;;;2088389;28;20028;-74
2021/05/04 02:13:17;;;;;;;9.30;6.60;;;7.10;72.20;;;;;;2087942;28;20104;-75
2021/05/04 02:14:18;;;;;;;10.40;7.22;;;7.10;72.40;;;;;;2088912;28;20025;-74
2021/05/04 02:15:18;;;;;;;9.15;7.13;;;7.10;72.40;;;;;;2088891;28;20025;-74
2021/05/04 02:16:19;;;;;;;9.68;7.22;;;7.10;72.40;;;;;;2089029;28;20475;-75
2021/05/04 02:17:20;;;;;;;9.82;7.60;;;7.10;72.40;;;;;;2087931;28;20028;-75
2021/05/04 02:18:20;;;;;;;9.70;7.13;;;7.10;72.00;;;;;;2088177;28;20028;-75
2021/05/04 02:19:21;;;;;;;8.63;6.70;;;7.10;72.00;;;;;;2088818;28;20029;-74
2021/05/04 02:20:21;;;;;;;10.93;7.00;;;7.10;71.80;;;;;;2089204;28;20028;-75
2021/05/04 02:21:22;;;;;;;8.95;6.88;;;7.10;71.70;;;;;;2088926;28;20028;-75
2021/05/04 02:22:23;;;;;;;8.07;6.78;;;7.10;71.80;;;;;;2088963;28;20021;-75
2021/05/04 02:23:23;;;;;;;10.48;7.13;;;7.10;72.20;;;;;;2088672;28;20059;-75
2021/05/04 02:24:24;;;;;;;9.05;6.93;;;7.10;72.40;;;;;;2088237;28;20021;-74
2021/05/04 02:25:25;;;;;;;9.00;6.70;;;7.10;72.20;;;;;;2088310;28;20563;-75
2021/05/04 02:26:25;;;;;;;9.95;7.03;;;7.10;72.20;;;;;;2088805;28;20396;-74
2021/05/04 02:27:26;;;;;;;8.57;6.57;;;7.10;72.30;;;;;;2088679;28;20070;-74
2021/05/04 02:28:27;;;;;;;8.23;6.70;;;7.10;72.40;;;;;;2085516;28;20092;-74
2021/05/04 02:29:27;;;;;;;8.43;6.80;;;7.00;72.30;;;;;;2088172;28;20039;-74
2021/05/04 02:30:30;;;;;;;7.45;6.10;;;7.00;72.40;;;;;;2079764;28;20033;-73
2021/05/04 02:31:30;;;;;;;9.75;7.07;;;7.00;72.40;;;;;;2080135;28;20021;-74
2021/05/04 02:32:34;;;;;;;8.38;6.88;;;7.00;72.10;;;;;;2088255;28;20483;-74
2021/05/04 02:33:36;;;;;;;9.90;7.15;;;7.00;72.10;;;;;;2088236;28;20031;-75
2021/05/04 02:34:37;;;;;;;7.90;6.70;;;7.00;72.40;;;;;;2088759;28;20396;-75
2021/05/04 02:35:37;;;;;;;8.70;7.22;;;7.00;72.50;;;;;;2087968;28;20064;-75
2021/05/04 02:36:38;;;;;;;10.43;7.82;;;7.00;72.70;;;;;;2088262;28;20013;-75
2021/05/04 02:37:38;;;;;;;9.20;7.55;;;7.00;72.30;;;;;;2087950;28;20028;-73
2021/05/04 02:38:39;;;;;;;9.65;7.18;;;7.00;72.10;;;;;;2088132;28;20021;-74
2021/05/04 02:39:40;;;;;;;10.15;7.03;;;7.00;71.90;;;;;;2088687;28;20411;-74
2021/05/04 02:40:40;;;;;;;8.20;6.72;;;7.10;72.30;;;;;;2087982;28;20013;-74
2021/05/04 02:41:41;;;;;;;7.70;6.30;;;7.10;72.60;;;;;;2088034;28;20024;-74
2021/05/04 02:42:42;;;;;;;8.85;6.60;;;7.00;72.90;;;;;;2088778;28;20060;-74
2021/05/04 02:43:42;;;;;;;8.30;6.72;;;7.00;73.00;;;;;;2088382;28;20508;-75
2021/05/04 02:44:43;;;;;;;8.70;7.13;;;7.00;73.10;;;;;;2096060;28;20033;-73
2021/05/04 02:45:43;;;;;;;9.05;6.97;;;7.00;73.00;;;;;;2089581;28;20028;-74
2021/05/04 02:46:44;;;;;;;9.00;7.07;;;7.10;72.80;;;;;;2088749;28;20404;-74
2021/05/04 02:47:44;;;;;;;9.48;6.78;;;7.10;72.80;;;;;;2088084;28;20143;-75
2021/05/04 02:48:45;;;;;;;10.32;7.13;;;7.10;72.70;;;;;;2088151;28;20029;-74
2021/05/04 02:49:46;;;;;;;9.88;7.07;;;7.10;72.80;;;;;;2088709;28;20056;-75
2021/05/04 02:50:47;;;;;;;8.93;7.25;;;7.20;73.10;;;;;;2088116;28;20075;-75
2021/05/04 02:51:47;;;;;;;9.23;6.93;;;7.20;72.00;;;;;;2088372;28;20017;-75
2021/05/04 02:52:48;;;;;;;9.35;7.03;;;7.20;71.70;;;;;;2088755;28;20039;-75
2021/05/04 02:53:49;;;;;;;8.73;7.00;;;7.20;71.60;;;;;;2088295;28;20033;-75
2021/05/04 02:54:49;;;;;;;8.07;7.10;;;7.30;71.80;;;;;;2088778;28;20033;-73
2021/05/04 02:55:50;;;;;;;7.88;6.90;;;7.30;71.60;;;;;;2080506;28;20461;-72
2021/05/04 02:56:50;;;;;;;8.80;6.63;;;7.30;71.70;;;;;;2088649;28;20020;-74
2021/05/04 02:57:51;;;;;;;8.73;6.95;;;7.30;71.90;;;;;;2085342;28;20022;-75
2021/05/04 02:58:52;;;;;;;9.18;6.90;;;7.40;71.90;;;;;;2087954;28;20053;-74
2021/05/04 02:59:52;;;;;;;8.15;6.63;;;7.30;71.50;;;;;;2088599;28;20033;-74
2021/05/04 03:00:54;;;;;;;7.90;6.47;;;7.40;71.40;;;;;;2088713;28;20028;-74
2021/05/04 03:01:55;;;;;;;8.40;6.30;;;7.40;71.50;;;;;;2088689;28;20028;-74
2021/05/04 03:02:56;;;;;;;7.47;6.28;;;7.40;71.60;;;;;;2088632;28;20029;-73
2021/05/04 03:03:56;;;;;;;8.80;6.70;;;7.50;71.20;;;;;;2088515;28;20103;-75
2021/05/04 03:04:57;;;;;;;8.48;6.53;;;7.50;71.00;;;;;;2087956;28;20049;-75
2021/05/04 03:05:57;;;;;;;9.10;6.85;;;7.50;70.70;;;;;;2087968;28;20033;-73
2021/05/04 03:06:58;;;;;;;10.45;8.18;;;7.60;70.50;;;;;;2087883;28;20059;-75
2021/05/04 03:07:59;;;;;;;9.95;7.40;;;7.60;70.00;;;;;;2079606;28;20051;-75
2021/05/04 03:08:59;;;;;;;8.85;6.57;;;7.60;70.20;;;;;;2088147;28;20037;-75
2021/05/04 03:10:00;;;;;;;9.13;7.22;;;7.60;70.20;;;;;;2088681;28;20032;-74
2021/05/04 03:11:01;;;;;;;9.32;6.85;;;7.70;69.80;;;;;;2088714;28;20040;-75
2021/05/04 03:12:01;;;;;;;8.50;6.70;;;7.70;69.70;;;;;;2088699;28;20036;-74
2021/05/04 03:13:02;;;;;;;9.55;6.88;;;7.70;69.80;;;;;;2088393;28;20507;-74
2021/05/04 03:14:03;;;;;;;10.57;8.02;;;7.70;70.00;;;;;;2088506;28;20582;-74
2021/05/04 03:15:04;;;;;;;10.77;8.05;;;7.80;69.80;;;;;;2088345;28;20033;-74
2021/05/04 03:16:05;;;;;;;10.07;7.90;;;7.80;69.60;;;;;;2088004;28;20070;-73
2021/05/04 03:17:05;;;;;;;10.07;7.97;;;7.80;68.90;;;;;;2088592;28;20028;-73
2021/05/04 03:18:06;;;;;;;9.77;7.45;;;7.80;68.50;;;;;;2088641;28;20033;-72
2021/05/04 03:19:07;;;;;;;14.27;8.15;;;7.80;68.50;;;;;;2088148;28;20032;-73
2021/05/04 03:20:08;;;;;;;9.50;7.93;;;7.80;68.70;;;;;;2088172;28;20025;-74
2021/05/04 03:21:09;;;;;;;9.35;7.53;;;7.90;69.00;;;;;;2088033;28;20021;-74
2021/05/04 03:22:10;;;;;;;9.07;7.25;;;7.90;69.20;;;;;;2082683;28;20048;-74
2021/05/04 03:23:11;;;;;;;8.93;7.03;;;7.90;69.30;;;;;;2093018;28;20025;-72
2021/05/04 03:24:11;;;;;;;8.77;6.60;;;7.90;69.30;;;;;;2079852;28;20021;-73
2021/05/04 03:25:12;;;;;;;8.38;6.97;;;7.90;69.20;;;;;;2088064;28;20060;-73
2021/05/04 03:26:14;;;;;;;10.02;7.60;;;7.90;69.40;;;;;;2088474;28;20021;-73
2021/05/04 03:27:15;;;;;;;10.07;7.72;;;7.90;69.10;;;;;;2088578;28;20496;-73
2021/05/04 03:28:18;;;;;;;9.20;7.30;;;7.90;69.50;;;;;;2085315;28;20071;-74
2021/05/04 03:29:18;;;;;;;9.10;7.38;;;7.90;69.30;;;;;;2089030;28;20021;-73
2021/05/04 03:30:19;;;;;;;9.60;7.10;;;7.90;69.30;;;;;;2090349;28;20083;-73
2021/05/04 03:31:20;;;;;;;8.68;7.15;;;8.00;69.80;;;;;;2090358;28;20094;-74
2021/05/04 03:32:20;;;;;;;10.20;7.60;;;7.90;69.60;;;;;;2090054;28;20036;-74
2021/05/04 03:33:21;;;;;;;9.38;7.53;;;7.90;69.80;;;;;;2089207;28;20044;-74
2021/05/04 03:34:21;;;;;;;10.70;7.40;;;7.90;69.40;;;;;;2090119;28;20063;-74
2021/05/04 03:35:22;;;;;;;10.48;7.70;;;7.90;69.30;;;;;;2090218;28;20109;-73
2021/05/04 03:36:23;;;;;;;9.20;7.30;;;7.90;69.50;;;;;;2090174;28;20017;-73
2021/05/04 03:37:23;;;;;;;8.85;7.35;;;7.90;69.80;;;;;;2089536;28;20017;-73
2021/05/04 03:38:24;;;;;;;8.10;6.72;;;7.90;70.90;;;;;;2094404;28;20673;-74
2021/05/04 03:39:25;;;;;;;9.93;7.28;;;7.90;70.10;;;;;;2092935;28;20036;-74
2021/05/04 03:40:26;;;;;;;8.98;7.22;;;7.90;70.30;;;;;;2089483;28;20056;-74
2021/05/04 03:41:26;;;;;;;9.77;7.35;;;7.80;70.50;;;;;;2090347;28;20492;-74
2021/05/04 03:42:27;;;;;;;12.75;8.40;;;7.80;70.50;;;;;;2090214;28;20096;-74
2021/05/04 03:43:27;;;;;;;10.60;7.70;;;7.80;70.10;;;;;;2089746;28;20032;-73
2021/05/04 03:44:28;;;;;;;10.05;7.35;;;7.80;70.30;;;;;;2090223;28;20035;-73
2021/05/04 03:45:29;;;;;;;10.80;7.90;;;7.80;70.50;;;;;;2090175;28;20029;-73
2021/05/04 03:46:29;;;;;;;11.20;8.13;;;7.80;69.90;;;;;;2090119;28;20124;-73
2021/05/04 03:47:30;;;;;;;10.70;8.20;;;7.80;69.30;;;;;;2090122;28;20039;-73
2021/05/04 03:48:31;;;;;;;10.65;7.72;;;7.90;68.70;;;;;;2090266;28;20033;-73
2021/05/04 03:49:31;;;;;;;14.35;9.07;;;7.90;68.40;;;;;;2090458;28;20028;-73
2021/05/04 03:50:32;;;;;;;12.52;8.52;;;8.00;68.40;;;;;;2090196;28;20036;-72
2021/05/04 03:51:33;;;;;;;12.13;8.55;;;8.00;68.40;;;;;;2081314;28;20053;-74
2021/05/04 03:52:34;;;;;;;10.80;8.32;;;8.10;68.30;;;;;;2081398;28;20022;-74
2021/05/04 03:53:37;;;;;;;12.32;9.05;;;8.20;67.00;;;;;;2089427;28;20040;-73
2021/05/04 03:54:37;;;;;;;12.15;8.85;;;8.30;66.40;;;;;;2089612;28;20029;-74
2021/05/04 03:55:38;;;;;;;12.40;8.40;;;8.40;66.00;;;;;;2090184;28;20017;-73
2021/05/04 03:56:38;;;;;;;10.35;8.43;;;8.40;65.90;;;;;;2090181;28;20025;-72
2021/05/04 03:57:39;;;;;;;13.32;8.55;;;8.40;66.20;;;;;;2089082;28;20391;-73
2021/05/04 03:58:39;;;;;;;12.60;8.82;;;8.50;65.90;;;;;;2088665;28;20325;-73
2021/05/04 03:59:40;;;;;;;12.15;8.60;;;8.60;65.60;;;;;;2090030;28;20112;-73
2021/05/04 04:00:41;;;;;;;12.38;8.82;;;8.60;65.40;;;;;;2090023;28;20028;-73
2021/05/04 04:01:41;;;;;;;12.18;8.70;;;8.70;65.50;;;;;;2089207;28;20021;-74
2021/05/04 04:02:42;;;;;;;11.95;8.60;;;8.70;65.30;;;;;;2089386;28;20391;-72
2021/05/04 04:03:43;;;;;;;10.90;8.20;;;8.70;64.90;;;;;;2089575;28;20032;-73
2021/05/04 04:04:44;;;;;;;12.15;9.20;;;8.70;64.70;;;;;;2089962;28;20100;-72
2021/05/04 04:05:44;;;;;;;11.93;8.90;;;8.80;64.20;;;;;;2089323;28;20032;-73
2021/05/04 04:06:45;;;;;;;12.25;9.15;;;8.80;64.40;;;;;;2089466;28;20468;-73
2021/05/04 04:07:46;;;;;;;13.02;9.05;;;8.90;64.10;;;;;;2089887;28;20036;-73
2021/05/04 04:08:48;;;;;;;10.80;8.98;;;9.00;64.20;;;;;;2089500;28;20756;-72
2021/05/04 04:09:49;;;;;;;11.77;8.90;;;9.00;64.20;;;;;;2089303;28;20499;-73
2021/05/04 04:10:49;;;;;;;12.80;9.35;;;9.00;64.10;;;;;;2081173;28;20100;-73
2021/05/04 04:11:50;;;;;;;10.88;8.65;;;9.10;63.60;;;;;;2081142;28;20065;-74
2021/05/04 04:12:50;;;;;;;10.75;8.75;;;9.20;63.40;;;;;;2089391;28;20025;-73
2021/05/04 04:13:51;;;;;;;15.77;9.10;;;9.20;63.60;;;;;;2089543;28;20056;-72
2021/05/04 04:14:53;;;;;;;11.90;8.80;;;9.20;63.70;;;;;;2089247;28;20100;-73
2021/05/04 04:15:53;;;;;;;12.27;9.38;;;9.30;63.40;;;;;;2081558;28;20029;-73
2021/05/04 04:16:54;;;;;;;12.73;9.65;;;9.30;63.30;;;;;;2096785;28;20118;-73
2021/05/04 04:17:55;;;;;;;13.93;9.02;;;9.40;63.40;;;;;;2089272;28;20079;-72
2021/05/04 04:18:55;;;;;;;11.52;9.20;;;9.40;63.30;;;;;;2089866;28;20057;-73
2021/05/04 04:19:56;;;;;;;13.35;9.32;;;9.40;63.00;;;;;;2089928;28;20644;-74
2021/05/04 04:20:57;;;;;;;12.90;9.15;;;9.50;63.00;;;;;;2089803;28;20017;-72
2021/05/04 04:21:57;;;;;;;12.50;9.35;;;9.50;63.30;;;;;;2089852;28;20469;-73
2021/05/04 04:22:58;;;;;;;12.85;9.85;;;9.50;63.00;;;;;;2089664;28;20032;-75
2021/05/04 04:23:58;;;;;;;10.60;8.90;;;9.60;63.10;;;;;;2089004;28;20033;-74
2021/05/04 04:24:59;;;;;;;12.43;9.07;;;9.60;63.00;;;;;;2089448;28;20052;-73
2021/05/04 04:25:59;;;;;;;14.57;9.18;;;9.60;63.10;;;;;;2089784;28;20025;-73
2021/05/04 04:27:00;;;;;;;12.75;9.10;;;9.70;63.30;;;;;;2089924;28;20028;-73
2021/05/04 04:28:01;;;;;;;12.55;9.23;;;9.70;63.60;;;;;;2087266;28;20049;-73
2021/05/04 04:29:01;;;;;;;11.90;8.65;;;9.70;63.00;;;;;;2089818;28;20108;-73
2021/05/04 04:30:03;;;;;;;13.25;8.55;;;9.80;62.60;;;;;;2089834;28;20033;-72
2021/05/04 04:31:04;;;;;;;13.10;9.18;;;9.80;62.50;;;;;;2091814;28;20120;-73
2021/05/04 04:32:05;;;;;;;13.18;9.48;;;9.80;62.10;;;;;;2096161;28;20029;-73
2021/05/04 04:33:06;;;;;;;14.05;9.32;;;9.80;62.50;;;;;;2089504;28;20028;-71
2021/05/04 04:34:08;;;;;;;14.50;9.30;;;9.90;62.90;;;;;;2089860;28;20116;-73
2021/05/04 04:35:10;;;;;;;13.60;9.32;;;9.90;62.50;;;;;;2089829;28;20051;-72
2021/05/04 04:36:10;;;;;;;13.18;9.15;;;9.90;62.80;;;;;;2089939;28;20036;-73
2021/05/04 04:37:11;;;;;;;12.50;8.82;;;9.90;62.50;;;;;;2090080;28;20025;-73
2021/05/04 04:38:11;;;;;;;13.45;9.02;;;9.90;62.30;;;;;;2089128;28;20116;-73
2021/05/04 04:39:12;;;;;;;13.57;9.20;;;9.90;62.60;;;;;;2089303;28;20021;-73
2021/05/04 04:40:13;;;;;;;15.07;9.07;;;10.00;62.60;;;;;;2089574;28;20029;-72
2021/05/04 04:41:13;;;;;;;10.88;8.65;;;10.00;62.30;;;;;;2089910;28;20027;-73
2021/05/04 04:42:14;;;;;;;13.45;9.23;;;10.00;61.50;;;;;;2089905;28;20049;-73
2021/05/04 04:43:15;;;;;;;12.52;8.75;;;10.10;61.90;;;;;;2089000;28;20700;-73
2021/05/04 04:44:16;;;;;;;13.23;9.07;;;10.10;61.60;;;;;;2080932;28;20025;-73
2021/05/04 04:45:17;;;;;;;13.07;9.57;;;10.10;61.20;;;;;;2076267;28;20021;-73
2021/05/04 04:46:17;;;;;;;13.93;9.20;;;10.20;60.90;;;;;;2081033;28;20022;-73
2021/05/04 04:47:18;;;;;;;13.20;8.98;;;10.20;60.50;;;;;;2093813;28;20476;-73
2021/05/04 04:48:18;;;;;;;13.75;9.10;;;10.20;60.60;;;;;;2089639;28;20075;-73
2021/05/04 04:49:19;;;;;;;12.32;9.02;;;10.30;61.20;;;;;;2089846;28;20025;-72
2021/05/04 04:50:20;;;;;;;11.75;8.50;;;10.30;61.00;;;;;;2089884;28;20419;-73
2021/05/04 04:51:20;;;;;;;12.05;8.63;;;10.30;60.30;;;;;;2089769;28;20013;-73
2021/05/04 04:52:21;;;;;;;12.57;9.07;;;10.30;60.40;;;;;;2089496;28;20021;-74
2021/05/04 04:53:22;;;;;;;11.90;9.05;;;10.40;60.40;;;;;;2081165;28;20408;-74
2021/05/04 04:54:22;;;;;;;11.93;9.25;;;10.40;60.40;;;;;;2089757;28;20029;-74
2021/05/04 04:55:23;;;;;;;12.98;9.55;;;10.50;60.90;;;;;;2089681;28;20021;-73
2021/05/04 04:56:24;;;;;;;12.15;8.82;;;10.50;60.60;;;;;;2089763;28;20013;-73
2021/05/04 04:57:24;;;;;;;11.43;9.20;;;10.50;60.40;;;;;;2081353;28;20017;-74
2021/05/04 04:58:25;;;;;;;12.88;8.93;;;10.50;60.00;;;;;;2087016;28;20029;-74
2021/05/04 04:59:25;;;;;;;13.07;10.10;;;10.50;59.80;;;;;;2099356;28;20649;-73
2021/05/04 05:00:26;;;;;;;14.68;9.13;;;10.60;59.80;;;;;;2093343;28;20428;-73
2021/05/04 05:01:27;;;;;;;11.82;9.40;;;10.60;59.80;;;;;;2089873;28;20049;-74
2021/05/04 05:02:28;;;;;;;15.43;9.60;;;10.60;59.80;;;;;;2090929;28;20013;-73
2021/05/04 05:03:28;;;;;;;12.13;9.30;;;10.60;59.80;;;;;;2089996;28;20021;-74
2021/05/04 05:04:29;;;;;;;12.98;9.60;;;10.70;59.70;;;;;;2090358;28;20040;-73
2021/05/04 05:05:30;;;;;;;11.52;9.02;;;10.70;59.80;;;;;;2090326;28;20029;-73
2021/05/04 05:06:31;;;;;;;12.45;8.93;;;10.70;59.40;;;;;;2089679;28;20016;-73
2021/05/04 05:07:32;;;;;;;11.50;8.98;;;10.70;59.30;;;;;;2088908;28;20110;-72
2021/05/04 05:08:32;;;;;;;13.13;9.55;;;10.70;59.30;;;;;;2089580;28;20446;-73
2021/05/04 05:09:35;;;;;;;13.75;9.38;;;10.70;59.10;;;;;;2088922;28;20056;-73
2021/05/04 05:10:36;;;;;;;14.40;9.20;;;10.70;59.20;;;;;;2088917;28;20483;-73
2021/05/04 05:11:37;;;;;;;11.60;9.23;;;10.80;59.10;;;;;;2089510;28;20028;-73
2021/05/04 05:12:38;;;;;;;11.52;9.15;;;10.80;59.10;;;;;;2089370;28;20107;-73
2021/05/04 05:13:38;;;;;;;11.27;8.80;;;10.70;59.20;;;;;;2088648;28;20488;-74
2021/05/04 05:14:40;;;;;;;13.00;9.25;;;10.80;59.30;;;;;;2088888;28;20726;-73
2021/05/04 05:15:41;;;;;;;12.30;8.68;;;10.80;59.10;;;;;;2089709;28;20017;-72
2021/05/04 05:16:41;;;;;;;15.30;9.10;;;10.80;58.80;;;;;;2089412;28;20063;-73
2021/05/04 05:17:42;;;;;;;17.52;9.48;;;10.90;59.00;;;;;;2088703;28;20059;-71
2021/05/04 05:18:43;;;;;;;13.80;9.07;;;10.80;59.30;;;;;;2089035;28;20427;-73